SAME/MDZ METAR and TAF weather

Enter ICAO airport designator
Station Type Date Time Source
SAME METAR 2022/11/27 08:00 UTC NOAA

SAME 270800Z 18013KT CAVOK 27/08 Q1014


Station Type Date Time Source
SAME Decoded METAR 2022/11/27 08:00 UTC NOAA

Mendoza Aerodrome, Argentina (SAME) 32-50S 068-47W 704M
Nov 27, 2022 - 03:00 AM EST / 2022.11.27 0800 UTC
Wind: from the S (180 degrees) at 15 MPH (13 KT):0
Visibility: greater than 7 mile(s):0
Temperature: 80 F (27 C)
Dew Point: 46 F (8 C)
Relative Humidity: 30%
Pressure (altimeter): 29.94 in. Hg (1014 hPa)
ob: SAME 270800Z 18013KT CAVOK 27/08 Q1014
cycle: 8

Station Type Date Time Source
SAME TAF 2022/11/27 06:09 UTC NOAA

TAF SAME 270500Z 2706/2806 36010KT 9999 SCT045 TX37/2720Z TN22/2710Z
BECMG 2714/2717 05015KT 9999 SCT035TCU
TEMPO 2719/2722 8000 SHRA SCT035 FEW040CB

Example: see airport list